Time;durP1;ratioP1;P1;durP2;ratioP2;P2;SDS_P1;SDS_P2;PMS_P1;PMS_P2;Temp;Humidity;BMP_temperature;BMP_pressure;BME280_temperature;BME280_humidity;BME280_pressure;Samples;Min_cycle;Max_cycle;Signal;HPM_P1;HPM_P2
2023/07/19 00:02:09;;;;;;;;;2.75;2.75;;;;;26.14;37.84;101050.63;4972585;28;45439;-71
2023/07/19 00:04:35;;;;;;;;;6.50;3.75;;;;;26.13;37.71;101046.22;4970169;28;45408;-72
2023/07/19 00:07:01;;;;;;;;;4.50;3.25;;;;;26.05;37.80;101044.94;4957758;28;45391;-71
2023/07/19 00:09:26;;;;;;;;;5.00;3.00;;;;;25.95;38.00;101034.72;4957410;28;45516;-71
2023/07/19 00:11:52;;;;;;;;;4.00;2.75;;;;;25.94;37.89;101026.78;4957230;28;45484;-73
2023/07/19 00:14:18;;;;;;;;;2.25;2.25;;;;;25.99;37.66;101047.03;4957099;28;45322;-72
2023/07/19 00:16:44;;;;;;;;;4.00;4.00;;;;;25.99;37.49;101052.41;4957161;28;45488;-71
2023/07/19 00:19:10;;;;;;;;;2.00;2.00;;;;;25.80;37.77;101019.50;4957299;28;45463;-71
2023/07/19 00:21:35;;;;;;;;;3.25;3.25;;;;;25.69;38.06;101017.41;4958498;28;45555;-70
2023/07/19 00:24:02;;;;;;;;;5.00;3.50;;;;;25.88;37.82;101052.13;4957330;28;45447;-73
2023/07/19 00:26:28;;;;;;;;;4.00;3.50;;;;;25.17;37.86;100930.03;4957298;28;45619;-73
2023/07/19 00:28:53;;;;;;;;;2.50;2.50;;;;;25.76;37.86;101032.22;4955716;28;45587;-72
2023/07/19 00:31:19;;;;;;;;;3.50;3.25;;;;;25.19;37.95;100951.41;4957467;28;46589;-73
2023/07/19 00:33:45;;;;;;;;;3.75;3.50;;;;;25.83;38.17;101059.56;4971802;28;45492;-73
2023/07/19 00:36:12;;;;;;;;;3.50;3.25;;;;;25.68;37.93;101039.84;4957202;28;45417;-73
2023/07/19 00:38:38;;;;;;;;;4.25;2.75;;;;;25.69;38.08;101041.56;4970640;28;45491;-73
2023/07/19 00:41:03;;;;;;;;;3.00;3.00;;;;;25.21;38.11;100965.59;4956985;28;45358;-73
2023/07/19 00:43:29;;;;;;;;;4.50;2.50;;;;;25.36;38.33;100991.53;4955269;28;45522;-74
2023/07/19 00:45:56;;;;;;;;;3.75;2.25;;;;;25.76;37.92;101066.22;4957207;28;45526;-72
2023/07/19 00:48:22;;;;;;;;;5.00;3.00;;;;;25.53;38.26;101022.81;4959473;28;45360;-72
2023/07/19 00:50:50;;;;;;;;;2.75;2.75;;;;;25.64;38.26;101050.81;4955395;28;48006;-73
2023/07/19 00:53:17;;;;;;;;;4.00;2.25;;;;;25.54;38.18;101037.06;4956686;28;45687;-73
2023/07/19 00:55:47;;;;;;;;;1.00;1.00;;;;;25.29;38.23;100987.47;4943025;28;45850;-74
2023/07/19 00:58:13;;;;;;;;;4.00;3.00;;;;;25.67;38.27;101059.53;4956717;28;45487;-72
2023/07/19 01:00:41;;;;;;;;;3.00;3.00;;;;;25.38;38.57;101008.41;4956717;28;45516;-72
2023/07/19 01:03:07;;;;;;;;;3.00;3.00;;;;;25.64;38.59;101053.50;4958557;28;45492;-73
2023/07/19 01:05:33;;;;;;;;;4.50;3.25;;;;;25.47;38.47;101033.00;4959471;28;45476;-72
2023/07/19 01:07:59;;;;;;;;;3.50;3.50;;;;;25.64;38.54;101066.91;4959652;28;45452;-72
2023/07/19 01:10:25;;;;;;;;;3.75;3.00;;;;;25.62;38.78;101064.31;4959574;28;45495;-71
2023/07/19 01:13:08;;;;;;;;;2.00;2.00;;;;;25.56;38.47;101059.31;4960292;28;45412;-74
2023/07/19 01:15:36;;;;;;;;;3.00;3.00;;;;;25.60;38.34;101060.84;4964126;28;45758;-71
2023/07/19 01:18:01;;;;;;;;;3.50;3.25;;;;;25.57;38.56;101059.19;4963758;28;45454;-77
2023/07/19 01:20:27;;;;;;;;;6.75;5.00;;;;;25.44;38.94;101028.69;4959685;28;45397;-78
2023/07/19 01:22:58;;;;;;;;;9.25;7.25;;;;;25.35;38.63;101013.94;4974196;28;45425;-77
2023/07/19 01:25:26;;;;;;;;;5.25;5.25;;;;;25.57;38.12;101043.09;4959536;28;45615;-75
2023/07/19 01:27:52;;;;;;;;;3.00;3.00;;;;;24.71;38.37;100913.81;4958849;28;45870;-78
2023/07/19 01:30:18;;;;;;;;;5.75;4.00;;;;;25.55;38.12;101053.06;4959819;28;45534;-78
2023/07/19 01:32:46;;;;;;;;;5.25;4.00;;;;;25.53;38.13;101052.31;4959908;28;45373;-77
2023/07/19 01:35:13;;;;;;;;;2.25;2.25;;;;;25.53;37.67;101056.78;4961486;28;45918;-79
2023/07/19 01:37:39;;;;;;;;;3.25;3.25;;;;;24.97;38.32;100992.75;4957796;28;45488;-78
2023/07/19 01:40:05;;;;;;;;;2.75;2.75;;;;;25.33;38.24;101047.16;4959362;28;45389;-77
2023/07/19 01:42:32;;;;;;;;;2.00;2.00;;;;;24.87;38.50;100994.22;4964112;28;45366;-78
2023/07/19 01:44:59;;;;;;;;;2.25;2.25;;;;;25.12;38.33;101036.63;4971079;28;45473;-74
2023/07/19 01:47:25;;;;;;;;;5.00;3.00;;;;;25.00;38.67;101029.25;4967523;28;45367;-74
2023/07/19 01:49:51;;;;;;;;;1.25;1.25;;;;;25.13;38.63;101070.53;4978250;28;45537;-72
2023/07/19 01:52:16;;;;;;;;;2.00;2.00;;;;;25.07;38.59;101075.34;4979051;28;45538;-73
2023/07/19 01:54:42;;;;;;;;;3.25;3.25;;;;;24.66;38.73;100998.91;4958703;28;45563;-73
2023/07/19 01:57:07;;;;;;;;;5.50;3.00;;;;;25.04;38.63;101080.88;4959406;28;45723;-72
2023/07/19 01:59:34;;;;;;;;;3.50;2.00;;;;;24.85;38.65;101057.72;4972029;28;45631;-71
2023/07/19 02:01:59;;;;;;;;;4.25;3.00;;;;;24.92;39.19;101087.75;4970711;28;45516;-74
2023/07/19 02:04:26;;;;;;;;;3.25;3.00;;;;;24.94;39.13;101086.72;4959309;28;45411;-73
2023/07/19 02:06:53;;;;;;;;;4.00;3.00;;;;;24.73;39.70;101055.69;4959465;28;45830;-72
2023/07/19 02:09:18;;;;;;;;;3.50;3.50;;;;;24.79;39.18;101078.59;4958581;28;45581;-73
2023/07/19 02:11:44;;;;;;;;;3.00;2.00;;;;;24.88;39.52;101092.38;4960128;28;45290;-72
2023/07/19 02:14:10;;;;;;;;;4.50;4.50;;;;;24.60;39.57;101044.72;4967061;28;45681;-72
2023/07/19 02:16:35;;;;;;;;;3.50;3.50;;;;;24.92;39.78;101095.78;4965240;28;45388;-73
2023/07/19 02:19:03;;;;;;;;;2.00;2.00;;;;;24.79;38.94;101071.44;4958480;28;47347;-72
2023/07/19 02:21:29;;;;;;;;;3.25;2.25;;;;;24.80;39.18;101062.47;4960223;28;45366;-72
2023/07/19 02:23:55;;;;;;;;;3.50;3.50;;;;;24.81;39.28;101055.28;4960128;28;45257;-72
2023/07/19 02:26:21;;;;;;;;;5.00;4.00;;;;;24.87;38.79;101063.88;4958006;28;45481;-71
2023/07/19 02:28:46;;;;;;;;;2.75;2.00;;;;;24.98;38.77;101090.09;4958421;28;46016;-72
2023/07/19 02:31:12;;;;;;;;;4.50;3.00;;;;;24.99;38.54;101089.16;4959025;28;45354;-73
2023/07/19 02:33:37;;;;;;;;;2.25;2.25;;;;;24.99;39.08;101094.50;4959871;28;45598;-73
2023/07/19 02:36:03;;;;;;;;;2.25;2.25;;;;;25.00;38.72;101081.97;4958888;28;45499;-71
2023/07/19 02:38:29;;;;;;;;;2.50;2.25;;;;;24.81;38.79;101068.69;4958520;28;45459;-71
2023/07/19 02:40:59;;;;;;;;;2.00;2.00;;;;;24.96;38.99;101087.50;4958633;28;45311;-72
2023/07/19 02:43:25;;;;;;;;;3.00;2.00;;;;;25.00;38.86;101088.19;4957232;28;45263;-72
2023/07/19 02:45:53;;;;;;;;;2.00;2.00;;;;;24.65;38.61;101031.97;4957242;28;45460;-73
2023/07/19 02:48:19;;;;;;;;;3.50;3.50;;;;;24.72;38.96;101051.25;4957125;28;47914;-71
2023/07/19 02:50:45;;;;;;;;;5.00;3.00;;;;;24.99;38.93;101083.78;4958625;28;45774;-73
2023/07/19 02:53:11;;;;;;;;;4.00;3.00;;;;;25.00;39.23;101100.72;4973876;28;45533;-73
2023/07/19 02:55:36;;;;;;;;;3.00;2.00;;;;;24.39;39.09;101013.69;4958403;28;45401;-72
2023/07/19 02:58:02;;;;;;;;;1.75;1.75;;;;;24.81;39.92;101082.06;4957657;28;46060;-73
2023/07/19 03:00:28;;;;;;;;;4.50;2.75;;;;;24.84;40.13;101103.34;4958197;28;45356;-73
2023/07/19 03:02:56;;;;;;;;;2.00;2.00;;;;;24.37;39.42;101028.94;4957181;28;45413;-73
2023/07/19 03:05:23;;;;;;;;;3.00;2.25;;;;;24.48;39.93;101056.94;4959014;28;46600;-73
2023/07/19 03:07:50;;;;;;;;;2.50;2.25;;;;;24.84;39.71;101117.59;4959317;28;45427;-72
2023/07/19 03:10:16;;;;;;;;;2.00;2.00;;;;;24.70;39.76;101090.66;4959522;28;46394;-73
2023/07/19 03:12:42;;;;;;;;;3.25;2.00;;;;;24.88;39.99;101112.97;4958529;28;45526;-73
2023/07/19 03:15:11;;;;;;;;;2.50;2.50;;;;;24.53;39.98;101068.28;4958340;28;45356;-73
2023/07/19 03:17:37;;;;;;;;;4.25;3.00;;;;;24.32;40.41;101037.22;4957999;28;46428;-73
2023/07/19 03:20:04;;;;;;;;;3.00;3.00;;;;;24.34;40.13;101046.94;4958020;28;45436;-73
2023/07/19 03:22:29;;;;;;;;;3.00;3.00;;;;;24.36;40.24;101045.97;4958862;28;45479;-72
2023/07/19 03:24:55;;;;;;;;;3.75;2.00;;;;;24.73;40.15;101122.66;4956495;28;45586;-72
2023/07/19 03:27:21;;;;;;;;;3.50;3.00;;;;;24.72;40.17;101135.16;4957707;28;45813;-72
2023/07/19 03:29:46;;;;;;;;;3.00;3.00;;;;;24.65;40.46;101116.81;4956711;28;45661;-72
2023/07/19 03:32:12;;;;;;;;;3.00;2.25;;;;;24.58;40.42;101134.13;4959382;28;45533;-72
2023/07/19 03:34:37;;;;;;;;;2.25;2.25;;;;;24.12;40.27;101052.47;4956632;28;45267;-73
2023/07/19 03:37:03;;;;;;;;;3.75;3.75;;;;;24.49;40.07;101119.41;4956363;28;46460;-73
2023/07/19 03:39:29;;;;;;;;;3.00;2.75;;;;;24.60;40.41;101140.28;4958005;28;45329;-72
2023/07/19 03:41:55;;;;;;;;;3.75;2.50;;;;;24.58;40.32;101151.06;4957800;28;45337;-73
2023/07/19 03:44:21;;;;;;;;;2.00;2.00;;;;;24.08;40.33;101076.78;4956849;28;45581;-73
2023/07/19 03:46:47;;;;;;;;;6.00;3.25;;;;;24.47;40.00;101146.25;4958570;28;45399;-73
2023/07/19 03:49:13;;;;;;;;;1.00;1.00;;;;;24.37;40.14;101138.69;4973615;28;45410;-73
2023/07/19 03:51:38;;;;;;;;;2.25;2.25;;;;;23.88;40.15;101069.72;4975829;28;45597;-73
2023/07/19 03:54:04;;;;;;;;;4.00;3.00;;;;;23.79;40.03;101067.50;4963441;28;45490;-77
2023/07/19 03:56:29;;;;;;;;;5.00;2.50;;;;;24.36;39.84;101166.44;4956976;28;45519;-74
2023/07/19 03:58:55;;;;;;;;;3.33;3.00;;;;;24.33;39.81;101162.97;4956168;28;45514;-75
2023/07/19 04:01:21;;;;;;;;;2.50;2.00;;;;;24.32;39.86;101163.03;4957782;28;45448;-75
2023/07/19 04:03:46;;;;;;;;;3.00;2.25;;;;;;;;4958588;28;45357;-77
2023/07/19 04:06:12;;;;;;;;;2.25;2.25;;;;;24.23;40.15;101172.38;4958770;28;46612;-72
2023/07/19 04:08:38;;;;;;;;;2.75;2.00;;;;;24.22;40.11;101165.28;4958691;28;45340;-74
2023/07/19 04:11:03;;;;;;;;;1.00;1.00;;;;;24.03;39.44;101157.25;4971998;28;45290;-74
2023/07/19 04:13:29;;;;;;;;;2.00;2.00;;;;;24.21;40.05;101168.91;4957596;28;45436;-72
2023/07/19 04:15:55;;;;;;;;;1.75;1.00;;;;;24.22;39.46;101181.34;4956910;28;46130;-75
2023/07/19 04:18:20;;;;;;;;;1.00;1.00;;;;;24.20;38.72;101177.00;4965119;28;45559;-72
2023/07/19 04:20:56;;;;;;;;;1.00;1.00;;;;;24.17;38.67;101185.19;4960600;28;45760;-71
2023/07/19 04:23:22;;;;;;;;;5.00;2.00;;;;;24.13;39.44;101193.38;4957143;28;45500;-71
2023/07/19 04:25:50;;;;;;;;;1.25;1.25;;;;;24.11;38.78;101205.09;4956891;28;46064;-72
2023/07/19 04:28:15;;;;;;;;;4.00;1.00;;;;;24.07;38.55;101200.81;4955878;28;45413;-71
2023/07/19 04:30:46;;;;;;;;;1.00;1.00;;;;;23.79;38.33;101148.59;4957022;28;45333;-73
2023/07/19 04:33:13;;;;;;;;;2.50;2.00;;;;;24.00;38.94;101191.34;4957190;28;45569;-73
2023/07/19 04:35:42;;;;;;;;;3.00;1.25;;;;;23.97;38.30;101207.53;4956818;28;46455;-73
2023/07/19 04:38:08;;;;;;;;;2.25;2.00;;;;;23.05;38.57;101047.69;4960556;28;45365;-72
2023/07/19 04:40:33;;;;;;;;;1.00;1.00;;;;;23.73;38.40;101161.34;4959824;28;45451;-72
2023/07/19 04:42:59;;;;;;;;;1.00;1.00;;;;;24.03;38.67;101201.88;4962049;28;45333;-73
2023/07/19 04:45:25;;;;;;;;;2.00;2.00;;;;;23.69;38.68;101149.94;4959141;28;47698;-72
2023/07/19 04:48:00;;;;;;;;;1.25;1.25;;;;;23.95;38.88;101178.19;4963729;28;45229;-71
2023/07/19 04:50:27;;;;;;;;;2.50;2.00;;;;;24.12;38.81;101201.47;4949992;28;45317;-71
2023/07/19 04:52:57;;;;;;;;;1.00;1.00;;;;;24.13;38.52;101198.72;4960216;28;45446;-73
2023/07/19 04:55:29;;;;;;;;;1.00;1.00;;;;;24.18;38.60;101206.53;4959798;28;45689;-73
2023/07/19 04:57:55;;;;;;;;;2.50;0.25;;;;;23.61;38.93;101111.97;4960487;28;45349;-72
2023/07/19 05:00:20;;;;;;;;;2.75;1.00;;;;;23.65;39.17;101122.44;4960183;28;45466;-72
2023/07/19 05:02:46;;;;;;;;;1.75;1.00;;;;;23.75;39.58;101141.63;4959896;28;45368;-73
2023/07/19 05:05:12;;;;;;;;;1.00;1.00;;;;;24.22;39.45;101208.09;4959301;28;45528;-73
2023/07/19 05:07:38;;;;;;;;;2.00;2.00;;;;;24.25;39.40;101199.06;4960016;28;45380;-73
2023/07/19 05:10:04;;;;;;;;;3.33;2.00;;;;;24.27;39.79;101206.06;4959616;28;45372;-73
2023/07/19 05:12:32;;;;;;;;;1.00;1.00;;;;;23.34;39.37;101042.81;4979374;28;45413;-73
2023/07/19 05:14:58;;;;;;;;;4.00;2.33;;;;;23.97;39.60;101149.53;4961046;28;46287;-73
2023/07/19 05:17:24;;;;;;;;;1.75;1.50;;;;;24.37;39.00;101209.19;4959420;28;45470;-73
2023/07/19 05:19:50;;;;;;;;;2.67;2.00;;;;;24.26;39.15;101188.28;4959922;28;45531;-72
2023/07/19 05:22:16;;;;;;;;;2.00;2.00;;;;;23.47;39.17;101053.81;4964889;28;45581;-74
2023/07/19 05:24:41;;;;;;;;;1.50;1.50;;;;;24.41;39.24;101215.25;4963457;28;46279;-73
2023/07/19 05:27:07;;;;;;;;;3.00;3.00;;;;;24.18;39.11;101171.75;4959283;28;45426;-74
2023/07/19 05:29:33;;;;;;;;;4.67;3.33;;;;;24.51;39.12;101214.78;4958744;28;45287;-73
2023/07/19 05:31:59;;;;;;;;;3.00;3.00;;;;;24.34;38.77;101185.22;4961993;28;45420;-74
2023/07/19 05:34:25;;;;;;;;;4.00;2.00;;;;;24.57;39.02;101220.78;4944925;28;45662;-75
2023/07/19 05:36:50;;;;;;;;;2.00;2.00;;;;;24.60;38.73;101231.34;4962310;28;45722;-74
2023/07/19 05:39:16;;;;;;;;;2.00;2.00;;;;;24.05;38.82;101133.97;4961795;28;45391;-74
2023/07/19 05:41:41;;;;;;;;;2.25;2.25;;;;;23.95;38.89;101113.97;4958664;28;45332;-74
2023/07/19 05:44:07;;;;;;;;;3.00;1.75;;;;;24.21;38.52;101138.59;4959230;28;46771;-73
2023/07/19 05:46:36;;;;;;;;;3.00;3.00;;;;;24.26;38.46;101139.25;4959061;28;45789;-73
2023/07/19 05:49:02;;;;;;;;;1.50;1.50;;;;;24.80;38.30;101216.97;4959147;28;45416;-74
2023/07/19 05:51:28;;;;;;;;;2.50;2.00;;;;;24.20;38.85;101123.47;4959379;28;45293;-74
2023/07/19 05:53:54;;;;;;;;;3.50;2.00;;;;;24.48;38.39;101171.22;4973943;28;47568;-73
2023/07/19 05:56:21;;;;;;;;;1.50;1.50;;;;;24.89;38.42;101225.41;4973306;28;45396;-72
2023/07/19 05:58:47;;;;;;;;;1.50;0.50;;;;;24.92;38.23;101225.25;4959093;28;45479;-74
2023/07/19 06:01:17;;;;;;;;;3.50;2.00;;;;;24.96;38.03;101229.53;4974083;28;45415;-73
2023/07/19 06:03:44;;;;;;;;;1.00;1.00;;;;;24.45;37.75;101140.06;4958613;28;46453;-74
2023/07/19 06:06:15;;;;;;;;;2.25;2.25;;;;;25.06;37.81;101237.97;4959558;28;45482;-73
2023/07/19 06:08:40;;;;;;;;;2.00;2.00;;;;;25.11;37.42;101235.03;4958921;28;45455;-73
2023/07/19 06:11:09;;;;;;;;;2.00;1.50;;;;;24.35;37.38;101114.72;4957151;28;45625;-73
2023/07/19 06:13:35;;;;;;;;;2.75;2.00;;;;;24.27;37.44;101092.78;4970416;28;47817;-74
2023/07/19 06:16:00;;;;;;;;;1.75;1.25;;;;;24.90;38.03;101202.16;4957409;28;45428;-74
2023/07/19 06:18:26;;;;;;;;;2.00;2.00;;;;;25.19;38.08;101248.94;4956874;28;45445;-74
2023/07/19 06:20:52;;;;;;;;;4.25;3.75;;;;;24.64;37.97;101156.13;4959106;28;45442;-74
2023/07/19 06:23:17;;;;;;;;;2.75;1.25;;;;;25.29;38.30;101254.69;4959919;28;45474;-73
2023/07/19 06:25:46;;;;;;;;;1.00;1.00;;;;;24.59;38.58;101133.19;4958672;28;45607;-73
2023/07/19 06:28:11;;;;;;;;;2.00;2.00;;;;;25.39;38.69;101251.47;4958896;28;45683;-74
2023/07/19 06:30:37;;;;;;;;;3.00;1.50;;;;;25.21;38.65;101217.56;4959654;28;45627;-74
2023/07/19 06:33:12;;;;;;;;;1.25;1.00;;;;;25.47;39.15;101250.22;4981541;28;47007;-72
2023/07/19 06:35:42;;;;;;;;;2.00;1.00;;;;;25.53;39.28;101245.41;4954940;28;45471;-73
2023/07/19 06:38:08;;;;;;;;;3.25;2.00;;;;;25.17;39.94;101181.09;4960281;28;45371;-73
2023/07/19 06:40:34;;;;;;;;;1.00;1.00;;;;;25.58;39.72;101239.78;4973117;28;45424;-73
2023/07/19 06:42:59;;;;;;;;;3.00;1.00;;;;;25.20;39.54;101183.69;4958186;28;45660;-74
2023/07/19 06:45:25;;;;;;;;;1.75;1.00;;;;;25.41;39.69;101207.63;4955960;28;45663;-73
2023/07/19 06:47:50;;;;;;;;;2.50;1.00;;;;;25.04;39.88;101155.91;4957313;28;45550;-73
2023/07/19 06:50:17;;;;;;;;;1.00;1.00;;;;;25.68;40.00;101246.41;4957218;28;45518;-73
2023/07/19 06:52:43;;;;;;;;;0.75;0.75;;;;;25.30;40.03;101174.19;4957518;28;45503;-73
2023/07/19 06:55:13;;;;;;;;;0.00;0.00;;;;;25.29;40.28;101150.13;4950111;28;45500;-74
2023/07/19 06:57:38;;;;;;;;;0.00;0.00;;;;;25.27;39.62;101163.66;4958488;28;45728;-72
2023/07/19 07:00:05;;;;;;;;;0.00;0.00;;;;;25.95;40.06;101248.56;4951781;28;45576;-71
2023/07/19 07:02:31;;;;;;;;;0.00;0.00;;;;;25.97;39.85;101241.31;4955599;28;46114;-76
2023/07/19 07:04:56;;;;;;;;;2.00;0.50;;;;;25.66;40.21;101200.00;4965268;28;45415;-75
2023/07/19 07:07:22;;;;;;;;;1.00;0.00;;;;;26.05;40.20;101248.94;4981615;28;45362;-76
2023/07/19 07:09:48;;;;;;;;;2.00;0.50;;;;;25.21;40.38;101096.94;4958219;28;45427;-76
2023/07/19 07:12:14;;;;;;;;;1.00;1.00;;;;;25.80;40.26;101191.22;4948616;28;45443;-75
2023/07/19 07:14:40;;;;;;;;;1.00;1.00;;;;;26.14;39.90;101241.22;4948262;28;45516;-76
2023/07/19 07:17:06;;;;;;;;;1.00;1.00;;;;;26.11;40.10;101254.84;4954377;28;45566;-77
2023/07/19 07:19:33;;;;;;;;;0.75;0.75;;;;;25.77;40.33;101184.19;4946429;28;45238;-74
2023/07/19 07:21:59;;;;;;;;;4.00;2.00;;;;;25.97;40.03;101217.16;4964623;28;46135;-74
2023/07/19 07:24:25;;;;;;;;;2.00;2.00;;;;;25.69;40.16;101164.94;4976097;28;45576;-75
2023/07/19 07:26:50;;;;;;;;;1.25;1.00;;;;;26.06;40.24;101235.44;4969380;28;45499;-72
2023/07/19 07:29:16;;;;;;;;;1.00;1.00;;;;;26.21;40.17;101258.75;4972748;28;45544;-73
2023/07/19 07:31:41;;;;;;;;;3.00;1.00;;;;;26.29;40.30;101247.59;4960117;28;45340;-69
2023/07/19 07:34:08;;;;;;;;;4.00;2.00;;;;;26.25;40.42;101245.16;4966748;28;45524;-73
2023/07/19 07:36:34;;;;;;;;;2.00;2.00;;;;;26.27;40.15;101243.22;4956684;28;45457;-68
2023/07/19 07:38:59;;;;;;;;;2.25;2.00;;;;;26.37;40.13;101249.84;4947819;28;45451;-69
2023/07/19 07:41:26;;;;;;;;;1.25;1.25;;;;;26.38;40.16;101251.56;4948423;28;46152;-72
2023/07/19 07:43:51;;;;;;;;;1.00;1.00;;;;;26.38;40.53;101252.41;4956916;28;45513;-78
2023/07/19 07:46:24;;;;;;;;;0.00;0.00;;;;;26.19;40.73;101243.66;4955460;28;45433;-74
2023/07/19 07:48:50;;;;;;;;;3.00;0.75;;;;;26.15;40.87;101250.16;4955416;28;45587;-71
2023/07/19 07:51:16;;;;;;;;;1.00;1.00;;;;;26.02;40.87;101221.31;4953933;28;45471;-70
2023/07/19 07:53:41;;;;;;;;;1.75;1.75;;;;;25.53;40.42;101135.44;4955148;28;45404;-70
2023/07/19 07:56:07;;;;;;;;;0.75;0.75;;;;;26.23;40.37;101238.03;4959023;28;45484;-71
2023/07/19 07:58:33;;;;;;;;;2.00;0.00;;;;;26.26;40.15;101225.41;4959595;28;45527;-71
2023/07/19 08:00:59;;;;;;;;;1.00;1.00;;;;;26.15;40.52;101209.88;4953912;28;46479;-70
2023/07/19 08:03:25;;;;;;;;;1.25;1.00;;;;;26.35;40.13;101249.06;4961065;28;45581;-73
2023/07/19 08:05:55;;;;;;;;;1.25;1.00;;;;;26.15;39.85;101215.25;4957319;28;45399;-69
2023/07/19 08:08:21;;;;;;;;;1.00;1.00;;;;;26.20;40.08;101210.50;4972990;28;45610;-71
2023/07/19 08:10:46;;;;;;;;;1.00;1.00;;;;;26.33;39.81;101232.16;4951728;28;46258;-70
2023/07/19 08:13:12;;;;;;;;;1.00;1.00;;;;;26.40;39.65;101244.28;4957968;28;45482;-71
2023/07/19 08:15:41;;;;;;;;;2.25;1.00;;;;;26.45;39.27;101242.22;4957044;28;45592;-70
2023/07/19 08:18:07;;;;;;;;;1.25;0.75;;;;;26.52;39.33;101243.59;4955757;28;45424;-72
2023/07/19 08:20:32;;;;;;;;;1.25;1.00;;;;;26.29;39.26;101207.31;4963949;28;46244;-75
2023/07/19 08:22:58;;;;;;;;;1.00;1.00;;;;;26.28;39.18;101228.88;4959068;28;45394;-72
2023/07/19 08:25:23;;;;;;;;;1.75;1.00;;;;;26.39;39.25;101237.19;4962100;28;45627;-72
2023/07/19 08:27:49;;;;;;;;;1.50;1.50;;;;;26.48;38.81;101251.91;4964759;28;45874;-71
2023/07/19 08:30:17;;;;;;;;;2.00;1.00;;;;;26.48;38.32;101252.78;4959521;28;45497;-76
2023/07/19 08:32:47;;;;;;;;;1.00;1.00;;;;;26.36;38.58;101222.13;4966765;28;45863;-74
2023/07/19 08:35:16;;;;;;;;;1.00;1.00;;;;;26.63;38.34;101251.09;4961486;28;45468;-73
2023/07/19 08:37:44;;;;;;;;;1.75;1.50;;;;;26.67;38.31;101246.38;4963595;28;45671;-74
2023/07/19 08:40:14;;;;;;;;;1.75;1.25;;;;;26.63;38.09;101241.19;4958137;28;46707;-72
2023/07/19 08:42:41;;;;;;;;;3.00;1.00;;;;;26.67;38.00;101246.38;4958754;28;45999;-71
2023/07/19 08:45:08;;;;;;;;;2.00;1.00;;;;;26.63;37.99;101256.47;4961189;28;45893;-70
2023/07/19 08:47:35;;;;;;;;;2.00;2.00;;;;;26.66;38.11;101245.53;4958301;28;45499;-71
2023/07/19 08:50:04;;;;;;;;;3.00;1.00;;;;;26.68;37.82;101243.63;4962621;28;46291;-70
2023/07/19 08:52:32;;;;;;;;;1.50;1.50;;;;;26.58;37.99;101213.75;4954964;28;45404;-75
2023/07/19 08:54:59;;;;;;;;;2.00;2.00;;;;;26.68;37.85;101245.44;4959699;28;45468;-71
2023/07/19 08:57:25;;;;;;;;;4.00;2.00;;;;;26.68;37.35;101240.06;4964999;28;45530;-69
2023/07/19 08:59:50;;;;;;;;;2.00;2.00;;;;;26.62;37.53;101231.41;4958974;28;46077;-76
2023/07/19 09:02:16;;;;;;;;;2.00;2.00;;;;;26.59;37.67;101228.88;4959436;28;45615;-69
2023/07/19 09:05:07;;;;;;;;;3.00;2.25;;;;;26.53;37.28;101242.66;4955369;28;45388;-69
2023/07/19 09:07:34;;;;;;;;;3.50;2.00;;;;;26.48;37.75;101238.47;4955335;28;46293;-73
2023/07/19 09:10:00;;;;;;;;;2.00;1.75;;;;;26.49;37.83;101245.59;4979519;28;47183;-77
2023/07/19 09:12:46;;;;;;;;;4.25;2.25;;;;;26.49;37.72;101232.16;4957905;28;45587;-74
2023/07/19 09:15:13;;;;;;;;;3.00;2.00;;;;;26.55;36.86;101232.72;4962514;28;45515;-69
2023/07/19 09:17:47;;;;;;;;;5.00;3.75;;;;;26.56;37.11;101233.59;4953429;28;45619;-76
2023/07/19 09:20:14;;;;;;;;;5.50;4.00;;;;;26.60;36.84;101238.69;4960905;28;45412;-69
2023/07/19 09:22:41;;;;;;;;;3.00;3.00;;;;;26.63;36.55;101237.66;4964317;28;45565;-69
2023/07/19 09:25:10;;;;;;;;;4.00;3.75;;;;;26.48;36.79;101250.13;4960968;28;45498;-70
2023/07/19 09:27:36;;;;;;;;;5.75;2.75;;;;;26.53;36.53;101244.44;4957260;28;45345;-69
2023/07/19 09:30:07;;;;;;;;;5.50;3.00;;;;;26.55;36.00;101232.72;4960208;28;45550;-69
2023/07/19 09:32:34;;;;;;;;;3.00;2.75;;;;;26.31;36.62;101223.31;4961687;28;45550;-69
2023/07/19 09:35:03;;;;;;;;;2.00;2.00;;;;;26.31;36.58;101242.97;4959220;28;45539;-68
2023/07/19 09:37:29;;;;;;;;;1.75;1.75;;;;;26.28;36.44;101247.66;4959113;28;45626;-70
2023/07/19 09:39:56;;;;;;;;;3.25;3.00;;;;;26.27;36.36;101244.13;4959641;28;46432;-68
2023/07/19 09:42:24;;;;;;;;;2.00;2.00;;;;;26.40;35.67;101244.28;4957726;28;45626;-69
2023/07/19 09:44:50;;;;;;;;;2.25;2.00;;;;;26.54;35.51;101232.81;4958383;28;45907;-68
2023/07/19 09:47:17;;;;;;;;;4.00;2.25;;;;;26.56;34.93;101238.97;4952216;28;45811;-69
2023/07/19 09:49:43;;;;;;;;;5.50;3.00;;;;;26.64;35.78;101242.06;4950636;28;46067;-69
2023/07/19 09:52:16;;;;;;;;;11.75;7.00;;;;;26.69;35.32;101239.97;4957009;28;45443;-69
2023/07/19 09:54:43;;;;;;;;;6.50;5.25;;;;;26.79;35.59;101243.88;4967476;28;45465;-69
2023/07/19 09:57:11;;;;;;;;;3.50;3.50;;;;;26.86;34.94;101247.03;4957505;28;45761;-70
2023/07/19 09:59:43;;;;;;;;;4.00;2.00;;;;;26.80;35.22;101237.53;4957891;28;46532;-71
2023/07/19 10:02:10;;;;;;;;;5.00;2.50;;;;;26.71;35.42;101227.31;4962765;28;45566;-69
2023/07/19 10:04:46;;;;;;;;;3.00;3.00;;;;;26.81;35.72;101247.34;4959608;28;45624;-69
2023/07/19 10:07:18;;;;;;;;;3.25;3.25;;;;;26.75;35.75;101222.66;4956581;28;45447;-70
2023/07/19 10:09:45;;;;;;;;;3.00;3.00;;;;;26.96;35.60;101247.41;4965162;28;46746;-68
2023/07/19 10:12:17;;;;;;;;;4.50;2.50;;;;;27.00;35.71;101241.75;4973792;28;45310;-67
2023/07/19 10:15:04;;;;;;;;;1.00;1.00;;;;;27.17;35.26;101227.31;4958744;28;45503;-69
2023/07/19 10:17:58;;;;;;;;;3.75;3.25;;;;;27.09;34.58;101216.13;4957895;28;45536;-68
2023/07/19 10:20:32;;;;;;;;;3.25;2.00;;;;;27.13;34.70;101227.59;4967026;28;45456;-76
2023/07/19 10:23:04;;;;;;;;;3.25;3.00;;;;;27.25;34.60;101243.00;4958304;28;45430;-71
2023/07/19 10:25:49;;;;;;;;;3.00;3.00;;;;;27.22;34.71;101227.06;4958204;28;45531;-73
2023/07/19 10:28:35;;;;;;;;;5.00;3.00;;;;;27.12;34.57;101244.66;4972319;28;45539;-72
2023/07/19 10:31:03;;;;;;;;;2.25;2.25;;;;;27.03;34.75;101227.25;4951667;28;46266;-71
2023/07/19 10:33:32;;;;;;;;;2.00;2.00;;;;;27.10;34.83;101244.75;4963714;28;45489;-74
2023/07/19 10:36:12;;;;;;;;;2.00;2.00;;;;;27.07;34.66;101243.13;4969360;28;45544;-71
2023/07/19 10:38:37;;;;;;;;;4.00;4.00;;;;;27.03;34.50;101230.81;4946390;28;45338;-70
2023/07/19 10:41:07;;;;;;;;;3.00;3.00;;;;;26.96;34.22;101226.75;4964726;28;45424;-72
2023/07/19 10:43:37;;;;;;;;;3.75;2.00;;;;;27.12;34.05;101241.97;4957412;28;45419;-70
2023/07/19 10:46:12;;;;;;;;;4.25;3.75;;;;;27.07;33.35;101207.28;4972493;28;45456;-70
2023/07/19 10:48:38;;;;;;;;;3.00;3.00;;;;;27.27;33.53;101239.28;4967649;28;45562;-71
2023/07/19 10:51:07;;;;;;;;;3.50;3.00;;;;;27.07;33.41;101189.34;4959441;28;45448;-75
2023/07/19 10:53:56;;;;;;;;;4.00;4.00;;;;;27.49;33.45;101246.88;4960309;28;45349;-73
2023/07/19 10:56:21;;;;;;;;;5.00;4.00;;;;;27.63;33.24;101242.50;4960996;28;45515;-78
2023/07/19 10:58:48;;;;;;;;;3.25;3.25;;;;;27.46;32.70;101209.44;4959830;28;45507;-70
2023/07/19 11:01:15;;;;;;;;;4.00;3.00;;;;;27.65;32.54;101227.13;4959651;28;45661;-79
2023/07/19 11:03:45;;;;;;;;;3.00;3.00;;;;;27.66;33.01;101250.38;4951865;28;45366;-72
2023/07/19 11:06:10;;;;;;;;;6.00;6.00;;;;;27.72;33.22;101236.56;4960034;28;45411;-72
2023/07/19 11:08:36;;;;;;;;;6.75;6.00;;;;;27.74;33.00;101231.94;4958396;28;46185;-72
2023/07/19 11:11:02;;;;;;;;;7.50;5.00;;;;;27.74;32.88;101244.50;4958478;28;45455;-75
2023/07/19 11:13:27;;;;;;;;;5.00;3.00;;;;;27.63;32.84;101216.44;4964813;28;45550;-72
2023/07/19 11:15:55;;;;;;;;;5.25;3.00;;;;;27.84;32.87;101238.50;4956776;28;45409;-70
2023/07/19 11:18:37;;;;;;;;;3.25;1.25;;;;;27.87;32.80;101234.75;4957798;28;45816;-71
2023/07/19 11:21:04;;;;;;;;;4.50;4.50;;;;;27.79;32.31;101221.75;4958182;28;45795;-72
2023/07/19 11:23:30;;;;;;;;;6.00;4.25;;;;;27.67;32.68;101212.63;4957914;28;45468;-72
2023/07/19 11:26:07;;;;;;;;;4.50;4.00;;;;;27.86;32.31;101225.81;4959322;28;45313;-72
2023/07/19 11:28:43;;;;;;;;;4.00;4.00;;;;;27.79;31.77;101243.28;4953245;28;45715;-72